Time;durP1;ratioP1;P1;durP2;ratioP2;P2;SDS_P1;SDS_P2;PMS_P1;PMS_P2;Temp;Humidity;BMP_temperature;BMP_pressure;BME280_temperature;BME280_humidity;BME280_pressure;Samples;Min_cycle;Max_cycle;Signal;HPM_P1;HPM_P2
2021/04/13 00:02:23;;;;;;;40.73;22.57;;;1.00;99.90;;;;;;5051678;28;20175;-64
2021/04/13 00:04:52;;;;;;;40.20;23.10;;;0.90;99.90;;;;;;5051506;28;20187;-64
2021/04/13 00:07:21;;;;;;;43.67;23.80;;;0.80;99.90;;;;;;5051868;28;20194;-64
2021/04/13 00:09:49;;;;;;;45.23;24.27;;;0.80;99.90;;;;;;5051679;28;20644;-64
2021/04/13 00:12:21;;;;;;;43.57;23.70;;;0.80;99.90;;;;;;5051868;28;20199;-64
2021/04/13 00:14:52;;;;;;;42.23;23.63;;;0.70;99.90;;;;;;5050970;28;20505;-64
2021/04/13 00:17:22;;;;;;;47.57;24.60;;;0.70;99.90;;;;;;5051568;28;20199;-65
2021/04/13 00:20:14;;;;;;;49.67;24.27;;;0.70;99.90;;;;;;5051152;28;20179;-64
2021/04/13 00:22:40;;;;;;;46.20;24.57;;;0.70;99.90;;;;;;5051356;28;20173;-64
2021/04/13 00:25:07;;;;;;;44.97;24.77;;;0.70;99.90;;;;;;5051419;28;20201;-64
2021/04/13 00:27:33;;;;;;;49.37;24.73;;;0.70;99.90;;;;;;5051494;28;20277;-63
2021/04/13 00:30:15;;;;;;;42.00;23.43;;;0.70;99.90;;;;;;5050999;28;20258;-64
2021/04/13 00:32:57;;;;;;;46.27;25.10;;;0.70;99.90;;;;;;5051101;28;20178;-64
2021/04/13 00:36:07;;;;;;;47.50;24.87;;;0.70;99.90;;;;;;5051486;28;20594;-65
2021/04/13 00:38:19;;;;;;;45.63;24.77;;;0.70;99.90;;;;;;5029378;28;20298;-64
2021/04/13 00:40:48;;;;;;;44.93;24.97;;;0.70;99.90;;;;;;5036288;28;20179;-64
2021/04/13 00:43:16;;;;;;;50.73;27.03;;;0.60;99.90;;;;;;5051556;28;20175;-65
2021/04/13 00:45:45;;;;;;;45.27;27.20;;;0.70;99.90;;;;;;5051065;28;20194;-64
2021/04/13 00:48:12;;;;;;;49.07;28.27;;;0.70;99.90;;;;;;5051403;28;20182;-63
2021/04/13 00:50:45;;;;;;;47.93;27.70;;;0.70;99.90;;;;;;5050605;28;20608;-64
2021/04/13 00:53:15;;;;;;;48.80;27.47;;;0.70;99.90;;;;;;5051378;28;20694;-64
2021/04/13 00:55:55;;;;;;;55.10;28.60;;;0.70;99.90;;;;;;5050823;28;20183;-64
2021/04/13 00:58:26;;;;;;;53.00;29.00;;;0.70;99.90;;;;;;5051273;28;20683;-64
2021/04/13 01:00:55;;;;;;;52.53;29.93;;;0.70;99.90;;;;;;5050335;28;20575;-65
2021/04/13 01:03:21;;;;;;;48.13;28.80;;;0.70;99.90;;;;;;5051271;28;20652;-64
2021/04/13 01:05:57;;;;;;;51.87;29.63;;;0.70;99.90;;;;;;5050585;28;20252;-64
2021/04/13 01:08:34;;;;;;;56.80;31.13;;;0.60;99.90;;;;;;5051134;28;20182;-64
2021/04/13 01:11:24;;;;;;;63.50;31.27;;;0.60;99.90;;;;;;5050205;28;20594;-64
2021/04/13 01:13:56;;;;;;;56.30;30.30;;;0.60;99.90;;;;;;5050689;28;20213;-64
2021/04/13 01:16:25;;;;;;;58.57;31.33;;;0.60;99.90;;;;;;5050784;28;20289;-64
2021/04/13 01:18:56;;;;;;;59.03;32.53;;;0.50;99.90;;;;;;5051027;28;20174;-64
2021/04/13 01:21:42;;;;;;;57.80;32.10;;;0.50;99.90;;;;;;5049967;28;20548;-64
2021/04/13 01:24:21;;;;;;;60.63;33.30;;;0.50;99.90;;;;;;5051246;28;20166;-64
2021/04/13 01:26:49;;;;;;;60.33;31.73;;;0.50;99.90;;;;;;5050509;28;20206;-64
2021/04/13 01:29:18;;;;;;;66.83;36.23;;;0.40;99.90;;;;;;5053490;28;20178;-63
2021/04/13 01:31:52;;;;;;;60.53;33.37;;;0.40;99.90;;;;;;5054351;28;20205;-64
2021/04/13 01:34:40;;;;;;;63.87;36.10;;;0.40;99.90;;;;;;5054303;28;20197;-64
2021/04/13 01:37:21;;;;;;;61.37;33.90;;;0.40;99.90;;;;;;5035057;28;20682;-64
2021/04/13 01:39:59;;;;;;;62.87;35.93;;;0.40;99.90;;;;;;5038844;28;20648;-63
2021/04/13 01:42:27;;;;;;;68.90;35.63;;;0.40;99.90;;;;;;5054692;28;20171;-65
2021/04/13 01:44:58;;;;;;;63.50;35.13;;;0.40;99.90;;;;;;5053939;28;20199;-64
2021/04/13 01:47:25;;;;;;;66.27;35.53;;;0.40;99.90;;;;;;5034737;28;20214;-64
2021/04/13 01:49:58;;;;;;;64.53;35.60;;;0.40;99.90;;;;;;5038117;28;20537;-64
2021/04/13 01:52:46;;;;;;;62.63;35.17;;;0.40;99.90;;;;;;5054575;28;20552;-64
2021/04/13 01:55:22;;;;;;;68.23;36.67;;;0.40;99.90;;;;;;5034250;28;20219;-64
2021/04/13 01:58:15;;;;;;;75.53;38.53;;;0.30;99.90;;;;;;5034157;28;20203;-63
2021/04/13 02:00:59;;;;;;;70.70;36.40;;;0.30;99.90;;;;;;5053853;28;20201;-64
2021/04/13 02:03:43;;;;;;;72.27;38.63;;;0.30;99.90;;;;;;5054016;28;20170;-64
2021/04/13 02:06:16;;;;;;;69.13;37.23;;;0.30;99.90;;;;;;5055797;28;20167;-69
2021/04/13 02:08:50;;;;;;;76.10;40.23;;;0.30;99.90;;;;;;5062003;28;20182;-67
2021/04/13 02:11:22;;;;;;;73.43;39.17;;;0.30;99.90;;;;;;5061501;28;20183;-69
2021/04/13 02:13:55;;;;;;;69.50;38.87;;;0.20;99.90;;;;;;5061320;28;20257;-66
2021/04/13 02:16:44;;;;;;;66.60;36.37;;;0.20;99.90;;;;;;5061190;28;20202;-69
2021/04/13 02:19:11;;;;;;;76.70;39.83;;;0.20;99.90;;;;;;5060049;28;20205;-67
2021/04/13 02:21:42;;;;;;;73.77;39.27;;;0.20;99.90;;;;;;5060898;28;20186;-67
2021/04/13 02:24:11;;;;;;;73.40;38.97;;;0.20;99.90;;;;;;5060438;28;20175;-67
2021/04/13 02:26:48;;;;;;;79.10;41.60;;;0.20;99.90;;;;;;5061550;28;20561;-69
2021/04/13 02:29:15;;;;;;;80.30;41.73;;;0.20;99.90;;;;;;5061814;28;20179;-68
2021/04/13 02:31:48;;;;;;;72.97;37.60;;;0.20;99.90;;;;;;5060967;28;20167;-67
2021/04/13 02:34:23;;;;;;;78.27;40.93;;;0.20;99.90;;;;;;5062765;28;20210;-68
2021/04/13 02:36:52;;;;;;;78.43;39.63;;;0.10;99.90;;;;;;5060218;28;20236;-66
2021/04/13 02:39:22;;;;;;;74.70;39.67;;;0.10;99.90;;;;;;5061221;28;20232;-67
2021/04/13 02:42:19;;;;;;;80.03;40.53;;;0.10;99.90;;;;;;5061145;28;20222;-70
2021/04/13 02:45:00;;;;;;;83.23;41.00;;;0.10;99.90;;;;;;5052182;28;20691;-68
2021/04/13 02:47:28;;;;;;;78.83;39.03;;;0.10;99.90;;;;;;5061901;28;20194;-67
2021/04/13 02:49:57;;;;;;;78.20;40.63;;;0.10;99.90;;;;;;5061502;28;20231;-67
2021/04/13 02:52:34;;;;;;;73.87;40.53;;;0.10;99.90;;;;;;5063595;28;20170;-68
2021/04/13 02:55:05;;;;;;;84.93;41.63;;;0.10;99.90;;;;;;5059424;28;20203;-67
2021/04/13 02:57:43;;;;;;;78.00;40.10;;;0.10;99.90;;;;;;5060165;28;20190;-70
2021/04/13 03:00:35;;;;;;;72.40;39.37;;;0.00;99.90;;;;;;5060849;28;20173;-67
2021/04/13 03:03:09;;;;;;;74.83;38.30;;;0.00;99.90;;;;;;5033949;28;20266;-68
2021/04/13 03:05:36;;;;;;;76.53;40.20;;;0.00;99.90;;;;;;5049465;28;20184;-68
2021/04/13 03:08:06;;;;;;;77.20;40.27;;;0.00;99.90;;;;;;5062934;28;20546;-69
2021/04/13 03:10:39;;;;;;;77.30;39.83;;;-0.10;99.90;;;;;;5061679;28;20250;-67
2021/04/13 03:13:08;;;;;;;75.73;40.37;;;-0.10;99.90;;;;;;5062051;28;20185;-70
2021/04/13 03:15:36;;;;;;;78.13;40.93;;;-0.10;99.90;;;;;;5063507;28;20257;-67
2021/04/13 03:18:09;;;;;;;75.27;39.90;;;-0.10;99.90;;;;;;5062823;28;20202;-67
2021/04/13 03:20:42;;;;;;;77.97;41.13;;;-0.10;99.90;;;;;;5061000;28;20186;-68
2021/04/13 03:23:09;;;;;;;81.07;42.60;;;-0.10;99.90;;;;;;5063758;28;20163;-67
2021/04/13 03:25:40;;;;;;;81.23;42.00;;;0.00;99.90;;;;;;5065033;28;20171;-67
2021/04/13 03:28:08;;;;;;;71.87;40.93;;;-0.10;99.90;;;;;;5065432;28;20245;-69
2021/04/13 03:30:37;;;;;;;85.77;42.10;;;0.00;99.90;;;;;;5061994;28;20173;-68
2021/04/13 03:33:22;;;;;;;73.97;39.83;;;0.00;99.90;;;;;;5060860;28;20179;-70
2021/04/13 03:35:47;;;;;;;77.73;40.97;;;-0.10;99.90;;;;;;5061468;28;20178;-68
2021/04/13 03:38:18;;;;;;;77.57;41.53;;;-0.10;99.90;;;;;;5062120;28;20190;-70
2021/04/13 03:40:47;;;;;;;80.40;42.30;;;-0.10;99.90;;;;;;5060518;28;20209;-68
2021/04/13 03:43:15;;;;;;;77.77;38.17;;;-0.10;99.90;;;;;;5062025;28;20301;-69
2021/04/13 03:45:44;;;;;;;75.23;39.23;;;-0.10;99.90;;;;;;5060037;28;20167;-67
2021/04/13 03:48:19;;;;;;;80.80;40.10;;;-0.10;99.90;;;;;;5062651;28;20226;-66
2021/04/13 03:50:45;;;;;;;78.17;41.77;;;-0.10;99.90;;;;;;5061147;28;20163;-67
2021/04/13 03:53:14;;;;;;;77.87;41.00;;;-0.10;99.90;;;;;;5062211;28;20177;-68
2021/04/13 03:55:55;;;;;;;76.73;39.67;;;-0.10;99.90;;;;;;5061830;28;20629;-68
2021/04/13 03:58:23;;;;;;;75.63;38.67;;;-0.10;99.90;;;;;;5059480;28;20674;-64
2021/04/13 04:00:51;;;;;;;77.60;41.37;;;-0.10;99.90;;;;;;5050925;28;20178;-64
2021/04/13 04:03:17;;;;;;;80.27;40.97;;;-0.10;99.90;;;;;;5052082;28;20214;-64
2021/04/13 04:05:59;;;;;;;77.37;41.03;;;-0.20;99.90;;;;;;5050455;28;20202;-64
2021/04/13 04:08:48;;;;;;;82.73;41.00;;;-0.20;99.90;;;;;;5050689;28;20203;-64
2021/04/13 04:11:14;;;;;;;87.60;41.13;;;-0.20;99.90;;;;;;5031706;28;20199;-64
2021/04/13 04:13:47;;;;;;;73.90;40.23;;;-0.20;99.90;;;;;;5031826;28;20203;-64
2021/04/13 04:16:28;;;;;;;84.87;41.33;;;-0.30;99.90;;;;;;5031795;28;20171;-64
2021/04/13 04:18:55;;;;;;;74.57;39.93;;;-0.30;99.90;;;;;;5032710;28;20537;-64
2021/04/13 04:21:32;;;;;;;78.57;38.77;;;-0.30;99.90;;;;;;5051020;28;20231;-64
2021/04/13 04:24:08;;;;;;;75.17;40.73;;;-0.30;99.90;;;;;;5051303;28;20182;-64
2021/04/13 04:26:49;;;;;;;74.27;37.40;;;-0.30;99.90;;;;;;5031951;28;20203;-64
2021/04/13 04:29:35;;;;;;;72.93;37.80;;;-0.30;99.90;;;;;;5034542;28;20273;-64
2021/04/13 04:32:34;;;;;;;68.80;34.53;;;-0.30;99.90;;;;;;5031453;28;20172;-64
2021/04/13 04:35:03;;;;;;;76.30;40.13;;;-0.30;99.90;;;;;;5039939;28;20592;-64
2021/04/13 04:37:34;;;;;;;76.73;37.93;;;-0.30;99.90;;;;;;5051559;28;20194;-64
2021/04/13 04:40:27;;;;;;;83.00;40.90;;;-0.30;99.90;;;;;;5050724;28;20185;-64
2021/04/13 04:43:13;;;;;;;82.17;39.60;;;-0.30;99.90;;;;;;5051261;28;20179;-64
2021/04/13 04:45:45;;;;;;;83.77;41.63;;;-0.30;99.90;;;;;;5050983;28;20179;-64
2021/04/13 04:48:38;;;;;;;87.67;39.30;;;-0.30;99.90;;;;;;5051398;28;20281;-64
2021/04/13 04:51:05;;;;;;;87.53;43.67;;;-0.30;99.90;;;;;;5048732;28;20190;-64
2021/04/13 04:53:32;;;;;;;86.90;40.43;;;-0.20;99.90;;;;;;5051012;28;20521;-64
2021/04/13 04:56:00;;;;;;;77.43;40.10;;;-0.10;99.90;;;;;;5051351;28;20255;-64
2021/04/13 04:58:26;;;;;;;78.70;39.13;;;0.00;99.90;;;;;;5051022;28;20175;-64
2021/04/13 05:00:53;;;;;;;78.80;37.57;;;0.00;99.90;;;;;;5050976;28;20636;-64
2021/04/13 05:03:20;;;;;;;74.77;38.57;;;0.10;99.90;;;;;;5055452;28;20272;-63
2021/04/13 05:05:46;;;;;;;87.07;41.30;;;0.10;99.90;;;;;;5054930;28;20181;-63
2021/04/13 05:08:12;;;;;;;86.43;41.50;;;0.20;99.90;;;;;;5055186;28;20277;-64
2021/04/13 05:10:37;;;;;;;74.37;38.57;;;0.30;99.90;;;;;;5055036;28;20545;-64
2021/04/13 05:13:04;;;;;;;84.47;40.77;;;0.40;99.90;;;;;;5054707;28;20171;-64
2021/04/13 05:15:30;;;;;;;81.40;40.47;;;0.50;99.90;;;;;;5055170;28;20297;-64
2021/04/13 05:17:56;;;;;;;64.63;35.63;;;0.60;99.90;;;;;;5054620;28;20293;-64
2021/04/13 05:20:22;;;;;;;71.90;38.47;;;0.70;99.90;;;;;;5052140;28;20179;-64
2021/04/13 05:22:47;;;;;;;74.83;38.50;;;0.80;99.90;;;;;;5053842;28;20167;-64
2021/04/13 05:25:15;;;;;;;68.20;35.77;;;0.80;99.90;;;;;;5057614;28;20167;-64
2021/04/13 05:27:41;;;;;;;68.07;35.77;;;0.80;99.90;;;;;;5043778;28;20275;-63
2021/04/13 05:30:09;;;;;;;65.20;34.67;;;0.80;99.90;;;;;;5034892;28;20168;-63
2021/04/13 05:32:35;;;;;;;72.13;38.90;;;0.80;99.90;;;;;;5034507;28;20305;-63
2021/04/13 05:35:01;;;;;;;56.27;30.20;;;0.90;99.90;;;;;;5034653;28;20294;-64
2021/04/13 05:37:29;;;;;;;60.43;36.33;;;0.90;99.90;;;;;;5034994;28;20229;-64
2021/04/13 05:39:56;;;;;;;68.43;37.53;;;0.90;99.90;;;;;;5034455;28;20163;-64
2021/04/13 05:42:33;;;;;;;75.37;39.57;;;0.90;99.90;;;;;;5034759;28;20168;-63
2021/04/13 05:45:00;;;;;;;62.13;37.07;;;1.00;99.90;;;;;;5034739;28;20171;-63
2021/04/13 05:47:29;;;;;;;65.13;35.73;;;1.10;99.90;;;;;;5034643;28;20199;-63
2021/04/13 05:49:55;;;;;;;63.03;37.00;;;1.20;99.90;;;;;;5034299;28;20167;-64
2021/04/13 05:52:20;;;;;;;63.23;34.37;;;1.30;99.90;;;;;;5034654;28;20174;-64
2021/04/13 05:54:46;;;;;;;70.43;36.67;;;1.40;99.90;;;;;;5034384;28;20699;-63
2021/04/13 05:57:15;;;;;;;60.57;34.97;;;1.50;99.90;;;;;;5034297;28;20241;-63
2021/04/13 05:59:42;;;;;;;55.27;31.73;;;1.50;99.90;;;;;;5034380;28;20179;-64
2021/04/13 06:02:13;;;;;;;50.43;31.83;;;1.60;99.90;;;;;;5034139;28;20187;-63
2021/04/13 06:04:39;;;;;;;53.67;31.33;;;1.70;99.90;;;;;;5034311;28;20167;-64
2021/04/13 06:07:04;;;;;;;52.80;32.37;;;1.80;99.90;;;;;;5043625;28;20256;-62
2021/04/13 06:09:30;;;;;;;48.03;29.17;;;1.90;99.90;;;;;;5054121;28;20632;-63
2021/04/13 06:11:56;;;;;;;47.87;29.10;;;1.90;99.90;;;;;;5053176;28;20207;-63
2021/04/13 06:14:23;;;;;;;40.97;26.73;;;2.10;99.90;;;;;;5053717;28;20706;-63
2021/04/13 06:16:50;;;;;;;46.07;26.93;;;2.20;99.90;;;;;;5053843;28;20264;-64
2021/04/13 06:19:16;;;;;;;38.63;25.27;;;2.50;99.90;;;;;;5053620;28;20250;-63
2021/04/13 06:21:42;;;;;;;34.90;23.37;;;2.70;99.90;;;;;;5053606;28;20171;-63
2021/04/13 06:24:09;;;;;;;31.20;22.63;;;2.90;99.90;;;;;;5052513;28;20171;-64
2021/04/13 06:26:35;;;;;;;33.40;21.90;;;3.00;99.90;;;;;;5053895;28;20703;-62
2021/04/13 06:29:00;;;;;;;27.80;19.93;;;3.10;99.90;;;;;;5053616;28;20175;-64
2021/04/13 06:31:26;;;;;;;35.00;21.13;;;3.10;99.90;;;;;;5033557;28;20198;-64
2021/04/13 06:33:52;;;;;;;27.90;19.10;;;3.20;99.90;;;;;;5033478;28;20221;-63
2021/04/13 06:36:21;;;;;;;27.57;18.87;;;3.20;99.90;;;;;;5033700;28;20214;-64
2021/04/13 06:38:47;;;;;;;26.47;17.67;;;3.20;99.90;;;;;;5035093;28;20174;-64
2021/04/13 06:41:46;;;;;;;32.07;18.73;;;3.30;99.90;;;;;;5053069;28;20171;-64
2021/04/13 06:44:41;;;;;;;24.10;17.50;;;3.30;99.90;;;;;;5053582;28;20659;-64
2021/04/13 06:47:13;;;;;;;25.23;16.93;;;3.30;99.90;;;;;;5053180;28;20186;-64
2021/04/13 06:49:56;;;;;;;25.30;17.00;;;3.40;99.90;;;;;;5051979;28;20190;-64
2021/04/13 06:52:30;;;;;;;24.63;16.57;;;3.50;99.90;;;;;;5053123;28;20202;-64
2021/04/13 06:55:08;;;;;;;26.23;18.20;;;3.70;99.90;;;;;;5033016;28;20289;-64
2021/04/13 06:57:56;;;;;;;24.53;17.50;;;3.80;99.90;;;;;;5034268;28;20241;-64
2021/04/13 07:00:55;;;;;;;29.07;16.47;;;3.90;99.90;;;;;;5053018;28;20178;-64
2021/04/13 07:03:28;;;;;;;25.33;16.93;;;4.10;99.90;;;;;;5052725;28;20182;-64
2021/04/13 07:06:15;;;;;;;23.90;16.37;;;4.30;99.90;;;;;;5052988;28;20171;-64
2021/04/13 07:08:49;;;;;;;23.23;14.60;;;4.50;99.90;;;;;;5052543;28;20175;-64
2021/04/13 07:11:30;;;;;;;22.53;14.70;;;4.70;99.90;;;;;;5052823;28;20194;-64
2021/04/13 07:14:23;;;;;;;18.33;13.50;;;5.00;99.90;;;;;;5052825;28;20415;-64
2021/04/13 07:16:58;;;;;;;19.33;13.23;;;5.30;99.90;;;;;;5052701;28;20285;-64
2021/04/13 07:19:31;;;;;;;18.83;13.70;;;5.60;99.90;;;;;;5033089;28;20175;-64
2021/04/13 07:22:22;;;;;;;18.43;13.27;;;5.40;99.90;;;;;;5032063;28;20234;-64
2021/04/13 07:25:00;;;;;;;17.50;12.67;;;5.30;99.90;;;;;;5035625;28;20246;-64
2021/04/13 07:27:31;;;;;;;16.27;12.03;;;5.20;99.90;;;;;;5050919;28;20225;-64
2021/04/13 07:30:05;;;;;;;19.33;12.70;;;5.20;99.90;;;;;;5052264;28;20477;-64
2021/04/13 07:32:34;;;;;;;17.67;13.23;;;5.30;99.90;;;;;;5052220;28;20257;-64
2021/04/13 07:34:59;;;;;;;15.97;12.17;;;5.50;99.90;;;;;;5052524;28;20648;-64
2021/04/13 07:37:49;;;;;;;19.63;13.10;;;5.70;99.90;;;;;;5051919;28;20195;-64
2021/04/13 07:40:24;;;;;;;24.03;13.03;;;5.80;99.90;;;;;;5052220;28;20534;-64
2021/04/13 07:43:20;;;;;;;19.33;12.50;;;5.70;99.90;;;;;;5051773;28;20171;-64
2021/04/13 07:46:09;;;;;;;16.40;11.60;;;5.60;99.90;;;;;;5044246;28;20214;-64
2021/04/13 07:48:56;;;;;;;17.23;12.17;;;5.80;99.90;;;;;;5051850;28;20232;-64
2021/04/13 07:51:51;;;;;;;16.57;11.53;;;5.90;99.90;;;;;;5052100;28;20662;-64
2021/04/13 07:54:37;;;;;;;18.03;13.17;;;5.90;99.90;;;;;;5051734;28;20708;-64
2021/04/13 07:57:32;;;;;;;19.53;12.70;;;5.80;99.90;;;;;;5051366;28;20225;-64
2021/04/13 08:00:15;;;;;;;16.20;12.23;;;5.90;99.90;;;;;;5049335;28;20194;-65
2021/04/13 08:02:47;;;;;;;17.63;11.67;;;6.10;99.90;;;;;;5051550;28;20279;-64
2021/04/13 08:05:13;;;;;;;20.27;12.47;;;6.30;99.90;;;;;;5051911;28;20528;-64
2021/04/13 08:07:58;;;;;;;18.03;11.50;;;6.30;99.90;;;;;;5051351;28;20227;-64
2021/04/13 08:10:26;;;;;;;16.90;10.70;;;6.40;99.90;;;;;;5051782;28;20171;-64
2021/04/13 08:13:01;;;;;;;16.87;11.07;;;6.50;99.90;;;;;;5049010;28;20648;-64
2021/04/13 08:15:48;;;;;;;16.90;10.70;;;6.60;99.90;;;;;;5051496;28;20201;-64
2021/04/13 08:18:37;;;;;;;14.07;9.93;;;6.70;99.90;;;;;;5051628;28;20205;-64
2021/04/13 08:21:33;;;;;;;16.03;10.43;;;6.80;99.90;;;;;;5049496;28;20208;-64
2021/04/13 08:23:59;;;;;;;17.43;9.43;;;7.20;99.90;;;;;;5046918;28;20301;-64
2021/04/13 08:26:31;;;;;;;13.03;9.07;;;7.50;99.90;;;;;;5051734;28;20724;-64
2021/04/13 08:29:25;;;;;;;16.47;9.77;;;7.80;99.90;;;;;;5051557;28;20171;-64
2021/04/13 08:35:37;;;;;;;15.40;8.57;;;8.90;99.90;;;;;;5051167;28;20253;-65
2021/04/13 08:38:16;;;;;;;10.07;6.40;;;10.10;99.90;;;;;;5042140;28;20229;-65
2021/04/13 08:41:02;;;;;;;9.07;6.13;;;10.70;99.90;;;;;;5051148;28;20182;-64
2021/04/13 08:43:40;;;;;;;9.10;5.87;;;11.00;99.90;;;;;;5051434;28;20623;-64
2021/04/13 08:46:27;;;;;;;9.93;6.60;;;11.50;99.90;;;;;;5051304;28;20200;-65
2021/04/13 08:49:32;;;;;;;15.33;7.70;;;11.50;99.90;;;;;;5051306;28;20166;-65
2021/04/13 08:52:16;;;;;;;11.60;5.03;;;11.70;99.90;;;;;;5051035;28;20592;-65
2021/04/13 08:54:47;;;;;;;9.07;5.47;;;11.80;99.90;;;;;;5051208;28;20293;-65
2021/04/13 08:57:28;;;;;;;11.03;5.53;;;11.90;99.90;;;;;;5051165;28;20183;-65
2021/04/13 08:59:59;;;;;;;11.97;5.03;;;12.30;99.90;;;;;;5050908;28;20166;-64
2021/04/13 09:02:35;;;;;;;10.20;5.20;;;12.30;99.90;;;;;;5051286;28;20163;-65
2021/04/13 09:05:23;;;;;;;9.80;5.77;;;12.30;99.90;;;;;;5050995;28;20261;-65
2021/04/13 09:07:49;;;;;;;8.30;4.43;;;12.30;99.90;;;;;;5051060;28;20186;-64
2021/04/13 09:10:35;;;;;;;7.33;4.83;;;12.40;99.90;;;;;;5050929;28;20175;-65
2021/04/13 09:13:23;;;;;;;7.93;4.83;;;12.80;99.90;;;;;;5051087;28;20668;-65
2021/04/13 09:15:57;;;;;;;7.97;4.73;;;12.80;99.90;;;;;;5051001;28;20257;-65
2021/04/13 09:18:46;;;;;;;8.13;3.13;;;13.50;99.90;;;;;;5058217;22;20599;-64
2021/04/13 09:21:20;;;;;;;9.33;2.90;;;13.90;99.90;;;;;;5029317;28;20174;-64
2021/04/13 09:23:49;;;;;;;7.27;3.90;;;13.80;99.90;;;;;;5030916;28;20258;-65
2021/04/13 09:26:19;;;;;;;6.80;3.70;;;13.80;99.90;;;;;;5039488;28;20316;-63
2021/04/13 09:28:53;;;;;;;7.77;3.40;;;13.80;99.90;;;;;;5014211;28;20510;-63
2021/04/13 09:31:41;;;;;;;7.20;3.10;;;13.80;99.90;;;;;;5014217;28;20188;-64
2021/04/13 09:34:35;;;;;;;7.03;4.07;;;13.90;99.90;;;;;;5016080;28;20208;-65
2021/04/13 09:37:19;;;;;;;3.50;2.20;;;14.10;99.90;;;;;;5000922;28;20689;-64
2021/04/13 09:40:15;;;;;;;3.73;2.73;;;14.20;99.90;;;;;;5010896;28;20168;-65
2021/04/13 09:43:17;;;;;;;5.33;2.53;;;14.30;99.90;;;;;;5011259;28;20187;-64
2021/04/13 09:46:00;;;;;;;6.27;2.93;;;15.00;99.90;;;;;;5011344;28;20167;-64
2021/04/13 09:48:39;;;;;;;10.77;3.50;;;16.10;99.90;;;;;;5026545;28;20286;-63
2021/04/13 09:51:23;;;;;;;7.57;3.17;;;15.90;99.90;;;;;;5026193;28;20318;-63
2021/04/13 09:54:17;;;;;;;3.63;2.43;;;15.60;99.90;;;;;;5013284;28;20219;-63
2021/04/13 09:56:46;;;;;;;4.77;3.10;;;15.60;99.90;;;;;;5026117;28;20286;-64
2021/04/13 09:59:40;;;;;;;5.70;2.77;;;15.30;99.90;;;;;;5032617;28;20180;-63
2021/04/13 10:02:24;;;;;;;6.40;2.90;;;14.70;99.90;;;;;;5019527;28;20187;-63
2021/04/13 10:04:59;;;;;;;5.30;2.93;;;14.10;99.90;;;;;;5014492;28;20261;-63
2021/04/13 10:07:30;;;;;;;5.80;2.70;;;14.10;99.90;;;;;;5030119;28;20608;-64
2021/04/13 10:09:58;;;;;;;8.90;3.37;;;13.70;99.90;;;;;;5033863;28;20176;-64
2021/04/13 10:12:54;;;;;;;5.40;2.60;;;13.00;99.90;;;;;;5017010;28;20307;-63
2021/04/13 10:15:30;;;;;;;6.87;2.90;;;12.00;99.90;;;;;;5014174;28;20207;-64
2021/04/13 10:18:14;;;;;;;6.90;2.80;;;11.30;99.90;;;;;;5014832;28;20290;-64
2021/04/13 10:21:18;;;;;;;9.13;4.40;;;11.20;99.90;;;;;;5013654;28;20641;-64
2021/04/13 10:24:19;;;;;;;9.03;2.20;;;10.90;99.90;;;;;;4994554;28;20664;-64
2021/04/13 10:26:56;;;;;;;3.90;2.30;;;10.60;99.90;;;;;;4973616;28;20212;-64
2021/04/13 10:29:59;;;;;;;5.73;1.87;;;10.70;99.90;;;;;;5033984;28;20167;-64
2021/04/13 10:32:45;;;;;;;5.30;2.20;;;11.10;99.90;;;;;;5020251;28;20179;-64
2021/04/13 10:36:01;;;;;;;6.20;2.47;;;12.20;99.90;;;;;;5013635;28;20200;-64
2021/04/13 10:38:38;;;;;;;6.27;2.27;;;13.40;99.90;;;;;;4952962;28;20617;-64
2021/04/13 10:41:40;;;;;;;7.00;3.10;;;14.00;99.90;;;;;;4989188;28;20648;-64
2021/04/13 10:44:31;;;;;;;5.37;1.80;;;14.80;99.90;;;;;;5029543;28;20172;-65
2021/04/13 10:47:24;;;;;;;3.77;1.77;;;16.00;99.90;;;;;;5013427;28;20200;-64
2021/04/13 10:50:07;;;;;;;5.07;2.00;;;16.00;99.90;;;;;;5011489;28;20182;-64
2021/04/13 10:52:56;;;;;;;5.97;2.17;;;14.70;99.90;;;;;;5013888;28;20184;-64
2021/04/13 10:55:54;;;;;;;6.17;2.00;;;13.40;99.90;;;;;;5013537;28;20200;-65
2021/04/13 10:58:34;;;;;;;5.50;2.10;;;12.90;99.90;;;;;;5028943;28;20267;-64
2021/04/13 11:01:25;;;;;;;3.83;1.80;;;12.40;99.90;;;;;;5032805;28;20171;-64
2021/04/13 11:04:09;;;;;;;5.50;2.23;;;13.10;99.90;;;;;;5013386;28;20555;-64
2021/04/13 11:06:52;;;;;;;5.07;2.00;;;14.40;99.90;;;;;;5013534;28;20182;-64
2021/04/13 11:09:33;;;;;;;5.03;2.13;;;14.80;99.90;;;;;;5033101;28;20168;-65
2021/04/13 11:12:32;;;;;;;4.60;2.03;;;14.80;99.90;;;;;;5026958;28;20724;-64
2021/04/13 11:15:16;;;;;;;3.37;1.70;;;14.20;99.90;;;;;;5032723;28;20203;-64
2021/04/13 11:18:09;;;;;;;3.00;1.50;;;14.00;99.90;;;;;;5019128;28;20208;-64
2021/04/13 11:21:02;;;;;;;6.40;1.90;;;14.30;99.90;;;;;;5012789;28;20600;-64
2021/04/13 11:23:53;;;;;;;5.93;2.20;;;15.10;99.90;;;;;;5031384;28;20222;-64
2021/04/13 11:26:57;;;;;;;3.73;1.73;;;15.50;99.90;;;;;;5031924;28;20192;-64
2021/04/13 11:29:50;;;;;;;4.83;1.50;;;16.40;99.90;;;;;;5012823;28;20176;-64
2021/04/13 11:32:49;;;;;;;4.40;1.97;;;16.20;98.50;;;;;;5017193;28;20176;-65
2021/04/13 11:35:40;;;;;;;4.53;1.73;;;16.60;99.90;;;;;;5012727;28;20564;-64
2021/04/13 11:38:10;;;;;;;3.40;1.80;;;16.60;99.10;;;;;;5030683;28;20223;-64
2021/04/13 11:40:46;;;;;;;4.40;1.73;;;16.00;98.40;;;;;;5019646;28;20176;-64
2021/04/13 11:43:16;;;;;;;3.60;1.80;;;15.40;99.90;;;;;;5012677;28;20641;-65
2021/04/13 11:46:10;;;;;;;2.40;1.60;;;15.90;99.90;;;;;;5024457;28;20179;-64
2021/04/13 11:49:06;;;;;;;6.07;1.90;;;16.30;99.90;;;;;;5026449;28;20210;-64
2021/04/13 11:51:42;;;;;;;3.67;1.87;;;16.90;99.90;;;;;;5012881;28;20207;-64
2021/04/13 11:54:39;;;;;;;5.27;2.07;;;17.50;99.20;;;;;;5011242;28;20211;-65
2021/04/13 11:57:27;;;;;;;4.47;1.97;;;17.10;94.90;;;;;;4992784;28;20713;-66
2021/04/13 12:00:18;;;;;;;4.80;1.90;;;17.00;96.50;;;;;;4999836;28;20175;-65
2021/04/13 12:02:45;;;;;;;4.67;2.00;;;16.70;95.10;;;;;;5032091;28;20171;-64
2021/04/13 12:05:27;;;;;;;2.83;1.70;;;16.50;98.30;;;;;;5030191;28;20201;-64
2021/04/13 12:07:54;;;;;;;3.30;1.70;;;17.30;99.80;;;;;;5031815;28;20599;-64
2021/04/13 12:10:31;;;;;;;4.37;1.90;;;16.90;94.80;;;;;;5024921;28;20258;-63
2021/04/13 12:13:03;;;;;;;2.77;1.60;;;16.20;96.80;;;;;;5012377;28;20184;-63
2021/04/13 12:15:31;;;;;;;2.53;1.60;;;15.30;95.80;;;;;;5018091;28;20290;-64
2021/04/13 12:17:59;;;;;;;2.80;1.80;;;14.80;98.10;;;;;;5031508;28;20211;-64
2021/04/13 12:20:35;;;;;;;4.47;1.70;;;14.30;95.80;;;;;;5017738;28;20183;-64
2021/04/13 12:23:12;;;;;;;4.67;2.10;;;13.50;95.70;;;;;;5030675;28;20651;-65
2021/04/13 12:26:04;;;;;;;4.23;2.10;;;12.80;97.80;;;;;;5031413;28;20171;-64
2021/04/13 12:28:30;;;;;;;8.67;2.37;;;11.80;99.20;;;;;;5031087;28;20229;-66
2021/04/13 12:31:23;;;;;;;2.50;1.80;;;11.50;99.90;;;;;;5030435;28;20696;-64
2021/04/13 12:33:56;;;;;;;4.30;1.83;;;12.20;99.90;;;;;;5031705;28;20262;-63
2021/04/13 12:36:54;;;;;;;5.13;1.83;;;13.20;98.10;;;;;;5031717;28;20680;-63
2021/04/13 12:39:43;;;;;;;3.67;1.63;;;13.70;99.40;;;;;;5031496;28;20655;-65
2021/04/13 12:42:35;;;;;;;3.93;2.03;;;13.80;97.20;;;;;;5031370;28;20176;-64
2021/04/13 12:45:19;;;;;;;4.00;2.10;;;14.10;99.90;;;;;;5031379;28;20192;-64
2021/04/13 12:48:10;;;;;;;3.20;1.83;;;14.90;97.30;;;;;;5031132;28;20200;-64
2021/04/13 12:50:43;;;;;;;3.60;1.80;;;15.10;96.70;;;;;;5026312;28;20206;-64
2021/04/13 12:53:13;;;;;;;3.87;1.83;;;15.40;96.90;;;;;;5031609;28;20239;-65
2021/04/13 12:55:39;;;;;;;3.20;1.57;;;15.80;95.60;;;;;;5031626;28;20662;-66
2021/04/13 12:58:12;;;;;;;2.80;1.40;;;16.20;93.70;;;;;;5031205;28;20191;-65
2021/04/13 13:00:43;;;;;;;2.37;1.33;;;16.40;95.10;;;;;;5031094;28;20172;-63
2021/04/13 13:03:13;;;;;;;1.67;1.40;;;16.70;93.10;;;;;;5031465;28;20229;-65
2021/04/13 13:05:39;;;;;;;3.90;1.70;;;16.50;93.70;;;;;;5031395;28;20210;-65
2021/04/13 13:08:07;;;;;;;4.80;1.53;;;16.00;93.60;;;;;;5031115;28;20195;-65
2021/04/13 13:10:45;;;;;;;5.53;1.57;;;15.60;92.20;;;;;;5031183;28;20175;-66
2021/04/13 13:13:22;;;;;;;3.17;1.43;;;15.50;90.40;;;;;;5031406;28;20176;-65
2021/04/13 13:15:49;;;;;;;2.97;1.40;;;15.70;92.80;;;;;;5030980;28;20690;-66
2021/04/13 13:18:35;;;;;;;3.00;1.53;;;15.80;90.40;;;;;;5031071;28;20207;-65
2021/04/13 13:21:03;;;;;;;1.40;1.20;;;16.00;93.60;;;;;;5030877;28;20225;-65
2021/04/13 13:23:38;;;;;;;2.73;1.20;;;16.40;84.70;;;;;;5033810;28;20183;-65
2021/04/13 13:26:29;;;;;;;3.53;1.40;;;16.00;82.10;;;;;;5035025;28;20179;-66
2021/04/13 13:28:54;;;;;;;2.10;1.23;;;15.30;87.60;;;;;;5034076;28;20281;-66
2021/04/13 13:31:25;;;;;;;3.97;1.13;;;14.80;82.90;;;;;;5034511;28;20183;-66
2021/04/13 13:33:55;;;;;;;1.50;1.30;;;14.80;88.40;;;;;;5034584;28;20594;-66